Share

Oakville, TX (78060)

RAWS GEORGE WEST TX US (MGWRT2) Elev 214 ft | 28.37 °N, 98.12 °W | Change Station

Current weather conditions updated 47 minutes ago

Overcast
Overcast
62 °F
Feels Like 62 °F
N
2
Wind Variable Wind from NE
Gusts 6.0 mph
Sunrise 7:03 AM
Sunset 7:59 PM
Moon Waning Gibbous

Today is forecast to be Much Warmer than yesterday.

Pressure 30.16 in
Visibility 10.0 miles
Clouds Overcast 4400 ft
Dew Point 59 °F
Humidity 89%
Rainfall 0.01 in
Snow Depth Not available.
UV 0 out of 16
Pollen 7.40 out of 12
Air Quality Not available.
Flu Activity Local Activity
METAR KBEA 181335Z AUTO 03006KT 10SM OVC044 17/16 A3016 RMK AO2 T01740161

More Conditions Fewer Conditions

Pressure 30.16 in
Visibility 10.0 miles
Clouds Overcast 4400 ft
Dew Point 59 °F
Humidity 89%
Rainfall 0.01 in
Snow Depth Not available.
UV 0 out of 16
Pollen 7.40 out of 12
Air Quality Not available.
Flu Activity Local Activity
METAR KBEA 181335Z AUTO 03006KT 10SM OVC044 17/16 A3016 RMK AO2 T01740161

More Conditions Fewer Conditions

10-Day Forecast

Almanac

Astronomy

Apr. 18, 2014 Rise Set
Actual Time 7:03 AM CDT 7:59 PM CDT
Civil Twilight 6:39 AM CDT 8:24 PM CDT
Nautical Twilight 6:11 AM CDT 8:52 PM CDT
Astronomical Twilight 5:41 AM CDT 9:22 PM CDT
Moon 11:35 PM CDT 9:37 AM CDT
Length of Visible Light 13h 44m
Length of Day
12h 55m
Tomorrow will be 1m 35s longer.
Waning Gibbous, 88% of the Moon is Illuminated
Today
Waning Gibbous
Apr 22
Last Quarter
Apr 29
New
May 6
First Quarter
May 14
Full

Today's Extremes

State Highs State Lows

Community

  • What's for Lunch?
    What's for Lunch?
  • SUNRISE THROUGH THE TREES.
    SUNRISE THROUGH THE TREES.
  • Dog Wood Blossoms
    Dog Wood Blossoms
  • Morning Light
    Morning Light
  • New Day
    New Day

WunderPhotos

Upload Photos

1,702,371 photos uploaded!

Nearby

Snow Depth

Station Depth Elevation
No new snow has been reported.

Coastal Water Temperatures

Place Temperature
No Stations Reporting

Earthquake Activity

City Distance Mag. Time & Date
No recent earthquake activity has been reported nearby.
Minimum magnitude displayed is 2.5.

Nearby Weather Stations

Station Location Temp. Dew Point Humidity Wind Precip. Elev Updated Type
RAWS GEORGE WEST TX, Three Rivers, TX 62 °F 59 °F 89% NE  at  2 mph 0.00 in / hr 214 ft 8:06 AM CDT MADIS
MesoWest WHITT , Whitsett, TX 60 °F - - North  at  - 0.00 in / hr 202 ft 6:55 AM CDT MADIS
Sunset Villas, Mathis, TX 64.4 °F 41 °F 43% NE  at  2.0 mph 0.00 in / hr 125 ft 8:53 AM CDT Rapid Fire
Argenta Community, Mathis, TX 63.4 °F 62 °F 95% NE  at  7.7 mph 0.00 in / hr 203 ft 8:53 AM CDT Rapid Fire

Show More Stations Show Fewer Stations

What do you think?

We're not finished. Please let us know what you like, what you don't like, and what you are still missing.